createdAt,value
2023-02-26T00:01:31.626Z,98715.47
2023-02-26T00:04:01.632Z,98715.56
2023-02-26T00:06:29.969Z,98722.44
2023-02-26T00:08:57.670Z,98717.25
2023-02-26T00:11:25.961Z,98708.47
2023-02-26T00:13:53.728Z,98714.59
2023-02-26T00:16:36.331Z,98699.06
2023-02-26T00:19:06.153Z,98717.22
2023-02-26T00:21:35.132Z,98735.34
2023-02-26T00:24:02.794Z,98725.78
2023-02-26T00:26:32.057Z,98710.44
2023-02-26T00:29:00.116Z,98687.97
2023-02-26T00:31:28.019Z,98679.34
2023-02-26T00:33:57.321Z,98668.06
2023-02-26T00:36:45.112Z,98676.94
2023-02-26T00:39:18.954Z,98688.97
2023-02-26T00:41:46.524Z,98690.66
2023-02-26T00:44:14.455Z,98692.38
2023-02-26T00:46:47.877Z,98693.22
2023-02-26T00:49:18.692Z,98680.28
2023-02-26T00:51:45.960Z,98680.16
2023-02-26T00:54:19.570Z,98687.19
2023-02-26T00:56:48.524Z,98697.47
2023-02-26T00:59:16.974Z,98690.53
2023-02-26T01:01:45.249Z,98710.25
2023-02-26T01:04:15.219Z,98707.72
2023-02-26T01:06:46.213Z,98699.09
2023-02-26T01:09:25.765Z,98693.19
2023-02-26T01:11:55.920Z,98707.06
2023-02-26T01:14:24.611Z,98706.19
2023-02-26T01:17:03.268Z,98720.75
2023-02-26T01:19:46.505Z,98732.88
2023-02-26T01:22:33.792Z,98737.16
2023-02-26T01:25:08.074Z,98732.84
2023-02-26T01:27:35.964Z,98718.25
2023-02-26T01:30:05.680Z,98712.25
2023-02-26T01:32:49.702Z,98700.22
2023-02-26T01:35:21.240Z,98704.50
2023-02-26T01:38:05.100Z,98697.56
2023-02-26T01:41:03.853Z,98689.00
2023-02-26T01:43:36.150Z,98689.87
2023-02-26T01:46:35.480Z,98677.88
2023-02-26T01:49:04.538Z,98679.53
2023-02-26T01:51:55.661Z,98688.16
2023-02-26T01:54:34.482Z,98696.72
2023-02-26T01:57:04.984Z,98699.31
2023-02-26T01:59:34.881Z,98727.66
2023-02-26T02:02:04.606Z,98731.16
2023-02-26T02:04:33.562Z,98738.88
2023-02-26T02:07:02.194Z,98738.91
2023-02-26T02:09:29.741Z,98743.22
2023-02-26T02:12:19.213Z,98735.37
2023-02-26T02:14:56.155Z,98721.56
2023-02-26T02:17:35.803Z,98708.59
2023-02-26T02:20:19.847Z,98705.09
2023-02-26T02:23:13.352Z,98709.41
2023-02-26T02:25:49.862Z,98729.31
2023-02-26T02:28:45.465Z,98728.53
2023-02-26T02:31:28.734Z,98730.22
2023-02-26T02:34:23.046Z,98744.06
2023-02-26T02:37:01.491Z,98741.47
2023-02-26T02:39:50.919Z,98751.84
2023-02-26T02:42:30.469Z,98758.75
2023-02-26T02:45:03.593Z,98746.72
2023-02-26T02:47:34.406Z,98751.87
2023-02-26T02:50:14.493Z,98760.47
2023-02-26T02:53:09.553Z,98761.34
2023-02-26T02:55:47.538Z,98785.41
2023-02-26T02:58:18.630Z,98784.41
2023-02-26T03:00:53.443Z,98774.00
2023-02-26T03:03:44.673Z,98777.41
2023-02-26T03:06:12.336Z,98799.78
2023-02-26T03:08:41.621Z,98794.72
2023-02-26T03:11:10.097Z,98793.62
2023-02-26T03:13:39.651Z,98787.75
2023-02-26T03:16:43.275Z,98767.97
2023-02-26T03:19:31.872Z,98763.81
2023-02-26T03:22:06.827Z,98771.53
2023-02-26T03:24:38.873Z,98782.78
2023-02-26T03:27:14.482Z,98781.00
2023-02-26T03:30:01.643Z,98790.56
2023-02-26T03:32:45.748Z,98802.41
2023-02-26T03:35:26.807Z,98795.69
2023-02-26T03:37:59.355Z,98803.28
2023-02-26T03:40:31.632Z,98797.34
2023-02-26T03:43:22.462Z,98788.66
2023-02-26T03:45:53.737Z,98806.81
2023-02-26T03:48:25.298Z,98809.44
2023-02-26T03:50:58.675Z,98818.09
2023-02-26T03:53:33.337Z,98820.56
2023-02-26T03:56:14.193Z,98823.97
2023-02-26T03:58:43.737Z,98825.69
2023-02-26T04:01:23.437Z,98811.16
2023-02-26T04:04:01.026Z,98792.19
2023-02-26T04:06:29.548Z,98786.19
2023-02-26T04:08:57.456Z,98796.59
2023-02-26T04:11:25.840Z,98794.88
2023-02-26T04:13:53.520Z,98795.75
2023-02-26T04:16:21.510Z,98793.19
2023-02-26T04:18:48.924Z,98809.53
2023-02-26T04:21:21.046Z,98824.19
2023-02-26T04:23:48.862Z,98826.78
2023-02-26T04:26:16.344Z,98840.56
2023-02-26T04:28:44.567Z,98865.53
2023-02-26T04:31:12.427Z,98872.44
2023-02-26T04:33:40.378Z,98856.03
2023-02-26T04:36:08.429Z,98851.72
2023-02-26T04:38:36.309Z,98862.88
2023-02-26T04:41:05.209Z,98874.94
2023-02-26T04:43:32.979Z,98871.44
2023-02-26T04:46:02.078Z,98886.72
2023-02-26T04:48:29.956Z,98882.41
2023-02-26T04:50:57.390Z,98878.09
2023-02-26T04:53:25.087Z,98873.72
2023-02-26T04:55:52.668Z,98863.44
2023-02-26T04:58:20.230Z,98866.91
2023-02-26T05:00:49.702Z,98874.44
2023-02-26T05:03:17.933Z,98872.59
2023-02-26T05:05:46.296Z,98863.69
2023-02-26T05:08:13.977Z,98856.78
2023-02-26T05:10:41.493Z,98851.63
2023-02-26T05:13:08.848Z,98869.59
2023-02-26T05:15:36.531Z,98855.31
2023-02-26T05:18:03.996Z,98866.63
2023-02-26T05:20:31.426Z,98868.94
2023-02-26T05:22:59.380Z,98863.94
2023-02-26T05:25:26.766Z,98879.47
2023-02-26T05:27:54.213Z,98888.97
2023-02-26T05:30:23.627Z,98893.44
2023-02-26T05:32:51.002Z,98905.22
2023-02-26T05:35:18.419Z,98913.75
2023-02-26T05:37:46.043Z,98915.19
2023-02-26T05:40:14.081Z,98901.53
2023-02-26T05:42:41.665Z,98909.25
2023-02-26T05:45:10.105Z,98921.25
2023-02-26T05:47:38.451Z,98927.28
2023-02-26T05:50:06.968Z,98937.50
2023-02-26T05:52:34.940Z,98952.13
2023-02-26T05:55:02.651Z,98952.22
2023-02-26T05:57:30.043Z,98950.44
2023-02-26T05:59:57.692Z,98942.41
2023-02-26T06:02:25.255Z,98940.28
2023-02-26T06:04:52.903Z,98952.09
2023-02-26T06:07:20.327Z,98954.78
2023-02-26T06:09:47.692Z,98955.63
2023-02-26T06:12:15.388Z,98952.47
2023-02-26T06:14:42.888Z,98964.19
2023-02-26T06:17:10.241Z,98960.12
2023-02-26T06:19:37.858Z,98955.75
2023-02-26T06:22:05.302Z,98975.31
2023-02-26T06:24:32.760Z,98979.19
2023-02-26T06:27:00.442Z,98984.41
2023-02-26T06:29:27.817Z,98981.84
2023-02-26T06:31:55.230Z,98979.09
2023-02-26T06:34:23.074Z,98981.50
2023-02-26T06:36:50.506Z,98974.06
2023-02-26T06:39:17.917Z,98976.00
2023-02-26T06:41:45.675Z,98981.22
2023-02-26T06:44:13.065Z,99006.94
2023-02-26T06:46:40.428Z,99013.75
2023-02-26T06:49:08.145Z,99011.41
2023-02-26T06:51:36.346Z,99013.72
2023-02-26T06:54:04.719Z,99017.16
2023-02-26T06:56:32.414Z,99011.34
2023-02-26T06:58:59.858Z,99013.03
2023-02-26T07:01:27.366Z,99019.78
2023-02-26T07:03:55.182Z,98996.78
2023-02-26T07:06:27.631Z,99004.69
2023-02-26T07:08:56.210Z,99001.22
2023-02-26T07:11:23.694Z,99017.44
2023-02-26T07:13:53.799Z,99015.94
2023-02-26T07:16:21.502Z,99006.75
2023-02-26T07:18:48.888Z,98996.22
2023-02-26T07:21:16.284Z,98990.09
2023-02-26T07:23:43.941Z,99003.91
2023-02-26T07:26:11.308Z,99005.69
2023-02-26T07:28:38.692Z,99005.84
2023-02-26T07:31:06.387Z,99004.97
2023-02-26T07:33:35.022Z,98980.13
2023-02-26T07:36:02.491Z,98984.28
2023-02-26T07:38:30.227Z,99011.88
2023-02-26T07:40:57.630Z,99025.63
2023-02-26T07:43:25.208Z,99015.34
2023-02-26T07:45:52.958Z,99011.81
2023-02-26T07:48:20.850Z,99020.78
2023-02-26T07:50:50.894Z,99009.69
2023-02-26T07:53:18.920Z,99013.84
2023-02-26T07:55:46.256Z,99011.38
2023-02-26T07:58:13.783Z,99014.75
2023-02-26T08:00:41.463Z,99010.53
2023-02-26T08:03:09.121Z,99026.06
2023-02-26T08:05:36.591Z,99013.22
2023-02-26T08:08:04.526Z,99017.97
2023-02-26T08:10:32.643Z,99016.69
2023-02-26T08:13:00.311Z,99009.00
2023-02-26T08:15:27.754Z,99009.03
2023-02-26T08:17:55.394Z,99007.38
2023-02-26T08:20:23.285Z,99010.09
2023-02-26T08:22:51.266Z,99028.94
2023-02-26T08:25:18.970Z,99028.06
2023-02-26T08:27:46.358Z,99027.34
2023-02-26T08:30:14.169Z,99020.44
2023-02-26T08:32:42.582Z,99011.91
2023-02-26T08:35:10.811Z,99007.44
2023-02-26T08:37:38.961Z,99019.59
2023-02-26T08:40:09.052Z,99023.88
2023-02-26T08:42:36.760Z,99032.37
2023-02-26T08:45:04.596Z,99033.28
2023-02-26T08:47:33.022Z,99042.75
2023-02-26T08:50:01.503Z,99052.19
2023-02-26T08:52:28.982Z,99050.50
2023-02-26T08:54:56.661Z,99052.31
2023-02-26T08:57:24.057Z,99054.53
2023-02-26T08:59:51.437Z,99053.94
2023-02-26T09:02:19.087Z,99061.00
2023-02-26T09:04:47.266Z,99062.66
2023-02-26T09:07:15.364Z,99058.38
2023-02-26T09:09:43.710Z,99065.28
2023-02-26T09:12:11.152Z,99059.28
2023-02-26T09:14:38.512Z,99053.34
2023-02-26T09:17:06.181Z,99068.66
2023-02-26T09:19:33.574Z,99068.88
2023-02-26T09:22:00.981Z,99071.47
2023-02-26T09:24:28.732Z,99077.47
2023-02-26T09:26:56.163Z,99076.66
2023-02-26T09:29:23.676Z,99083.56
2023-02-26T09:31:51.885Z,99078.37
2023-02-26T09:34:20.420Z,99080.13
2023-02-26T09:36:47.901Z,99087.06
2023-02-26T09:39:15.574Z,99087.84
2023-02-26T09:41:50.573Z,99085.28
2023-02-26T09:44:28.176Z,99094.72
2023-02-26T09:47:00.650Z,99097.38
2023-02-26T09:49:32.931Z,99092.22
2023-02-26T09:52:13.335Z,99084.47
2023-02-26T09:54:47.882Z,99086.22
2023-02-26T09:57:36.280Z,99081.06
2023-02-26T10:00:17.816Z,99078.47
2023-02-26T10:02:57.928Z,99081.00
2023-02-26T10:05:34.594Z,99083.56
2023-02-26T10:08:10.425Z,99088.75
2023-02-26T10:10:57.729Z,99102.59
2023-02-26T10:13:56.079Z,99111.22
2023-02-26T10:16:28.626Z,99124.16
2023-02-26T10:19:18.389Z,99126.75
2023-02-26T10:21:53.070Z,99137.00
2023-02-26T10:24:38.148Z,99132.59
2023-02-26T10:27:35.245Z,99145.47
2023-02-26T10:30:10.383Z,99147.09
2023-02-26T10:32:43.665Z,99151.19
2023-02-26T10:35:17.080Z,99145.19
2023-02-26T10:37:52.342Z,99153.09
2023-02-26T10:40:38.786Z,99147.81
2023-02-26T10:43:19.507Z,99154.81
2023-02-26T10:45:57.373Z,99153.91
2023-02-26T10:48:28.353Z,99160.00
2023-02-26T10:50:58.141Z,99164.22
2023-02-26T10:53:27.089Z,99160.72
2023-02-26T10:56:04.532Z,99161.69
2023-02-26T10:58:32.273Z,99164.19
2023-02-26T11:00:59.658Z,99170.28
2023-02-26T11:03:36.275Z,99176.34
2023-02-26T11:06:05.199Z,99167.78
2023-02-26T11:08:35.688Z,99173.62
2023-02-26T11:11:04.726Z,99171.69
2023-02-26T11:13:34.826Z,99155.22
2023-02-26T11:16:05.694Z,99165.56
2023-02-26T11:18:40.705Z,99163.97
2023-02-26T11:21:09.474Z,99176.41
2023-02-26T11:23:37.383Z,99178.03
2023-02-26T11:26:13.909Z,99185.78
2023-02-26T11:28:49.342Z,99179.44
2023-02-26T11:31:19.948Z,99182.28
2023-02-26T11:33:59.322Z,99188.44
2023-02-26T11:36:30.545Z,99187.44
2023-02-26T11:39:02.343Z,99183.16
2023-02-26T11:41:30.037Z,99193.53
2023-02-26T11:44:03.327Z,99187.34
2023-02-26T11:46:31.155Z,99188.16
2023-02-26T11:49:00.293Z,99195.22
2023-02-26T11:51:29.270Z,99190.91
2023-02-26T11:54:01.425Z,99186.47
2023-02-26T11:56:34.152Z,99182.19
2023-02-26T11:59:27.646Z,99191.78
2023-02-26T12:01:55.279Z,99197.09
2023-02-26T12:04:27.596Z,99199.69
2023-02-26T12:06:55.965Z,99198.78
2023-02-26T12:09:25.377Z,99202.41
2023-02-26T12:12:14.585Z,99205.78
2023-02-26T12:15:11.434Z,99209.13
2023-02-26T12:18:01.145Z,99203.06
2023-02-26T12:20:59.877Z,99206.41
2023-02-26T12:23:31.159Z,99209.25
2023-02-26T12:26:28.193Z,99207.41
2023-02-26T12:29:05.728Z,99221.28
2023-02-26T12:31:45.913Z,99222.13
2023-02-26T12:34:44.995Z,99222.00
2023-02-26T12:37:36.975Z,99222.75
2023-02-26T12:40:31.724Z,99224.25
2023-02-26T12:43:23.281Z,99224.28
2023-02-26T12:46:02.563Z,99223.63
2023-02-26T12:48:45.342Z,99229.78
2023-02-26T12:51:15.624Z,99237.50
2023-02-26T12:53:46.190Z,99237.53
2023-02-26T12:56:34.877Z,99229.78
2023-02-26T12:59:05.194Z,99243.69
2023-02-26T13:02:01.266Z,99238.41
2023-02-26T13:04:42.401Z,99241.97
2023-02-26T13:07:32.614Z,99248.19
2023-02-26T13:10:05.729Z,99255.06
2023-02-26T13:12:49.500Z,99254.25
2023-02-26T13:15:36.226Z,99259.50
2023-02-26T13:18:26.651Z,99269.66
2023-02-26T13:21:00.621Z,99266.16
2023-02-26T13:23:36.663Z,99265.31
2023-02-26T13:26:07.577Z,99269.47
2023-02-26T13:28:42.866Z,99266.97
2023-02-26T13:31:18.066Z,99267.78
2023-02-26T13:33:46.332Z,99278.13
2023-02-26T13:36:16.281Z,99273.91
2023-02-26T13:38:56.610Z,99276.59
2023-02-26T13:41:34.201Z,99280.97
2023-02-26T13:44:12.938Z,99276.56
2023-02-26T13:46:52.975Z,99282.47
2023-02-26T13:49:26.040Z,99275.63
2023-02-26T13:51:55.016Z,99273.06
2023-02-26T13:54:22.294Z,99280.97
2023-02-26T13:56:55.439Z,99275.91
2023-02-26T13:59:33.226Z,99275.81
2023-02-26T14:02:03.661Z,99294.03
2023-02-26T14:04:33.489Z,99292.31
2023-02-26T14:07:14.318Z,99301.00
2023-02-26T14:10:01.289Z,99307.97
2023-02-26T14:12:36.682Z,99311.41
2023-02-26T14:15:13.288Z,99315.63
2023-02-26T14:17:49.111Z,99317.50
2023-02-26T14:20:28.725Z,99312.25
2023-02-26T14:23:09.620Z,99313.97
2023-02-26T14:25:48.405Z,99326.09
2023-02-26T14:28:20.313Z,99317.44
2023-02-26T14:30:52.073Z,99328.78
2023-02-26T14:33:26.801Z,99323.56
2023-02-26T14:35:54.761Z,99331.34
2023-02-26T14:38:25.736Z,99330.47
2023-02-26T14:40:58.011Z,99338.25
2023-02-26T14:43:34.973Z,99341.78
2023-02-26T14:46:03.970Z,99347.00
2023-02-26T14:48:33.008Z,99348.69
2023-02-26T14:51:24.845Z,99353.91
2023-02-26T14:53:59.521Z,99353.94
2023-02-26T14:56:38.997Z,99353.87
2023-02-26T14:59:38.827Z,99360.81
2023-02-26T15:02:22.981Z,99359.09
2023-02-26T15:04:56.274Z,99371.22
2023-02-26T15:07:42.689Z,99376.37
2023-02-26T15:10:41.633Z,99380.75
2023-02-26T15:13:40.459Z,99385.94
2023-02-26T15:16:26.506Z,99395.44
2023-02-26T15:19:09.449Z,99391.94
2023-02-26T15:22:07.368Z,99398.00
2023-02-26T15:24:34.778Z,99405.78
2023-02-26T15:27:04.858Z,99415.31
2023-02-26T15:29:37.749Z,99410.97
2023-02-26T15:32:14.147Z,99417.91
2023-02-26T15:35:04.720Z,99423.06
2023-02-26T15:37:33.722Z,99426.53
2023-02-26T15:40:05.151Z,99429.19
2023-02-26T15:42:38.538Z,99428.28
2023-02-26T15:45:13.575Z,99430.88
2023-02-26T15:47:41.306Z,99436.94
2023-02-26T15:50:14.544Z,99436.06
2023-02-26T15:52:42.252Z,99433.50
2023-02-26T15:55:15.079Z,99443.88
2023-02-26T15:57:42.829Z,99441.25
2023-02-26T16:00:16.337Z,99450.75
2023-02-26T16:02:45.691Z,99451.63
2023-02-26T16:05:14.702Z,99453.34
2023-02-26T16:07:42.329Z,99457.69
2023-02-26T16:10:20.917Z,99468.06
2023-02-26T16:12:49.383Z,99472.41
2023-02-26T16:15:21.274Z,99465.47
2023-02-26T16:17:50.865Z,99472.38
2023-02-26T16:20:21.453Z,99478.44
2023-02-26T16:22:50.834Z,99485.38
2023-02-26T16:25:25.109Z,99496.63
2023-02-26T16:28:00.317Z,99487.97
2023-02-26T16:30:36.903Z,99486.25
2023-02-26T16:33:06.189Z,99487.94
2023-02-26T16:35:38.642Z,99499.22
2023-02-26T16:38:15.682Z,99500.94
2023-02-26T16:40:44.869Z,99503.53
2023-02-26T16:43:44.641Z,99507.00
2023-02-26T16:46:16.537Z,99510.44
2023-02-26T16:48:50.836Z,99514.75
2023-02-26T16:51:22.220Z,99512.16
2023-02-26T16:53:58.227Z,99515.63
2023-02-26T16:56:30.040Z,99519.97
2023-02-26T16:59:12.727Z,99516.50
2023-02-26T17:01:45.438Z,99521.66
2023-02-26T17:04:15.448Z,99533.75
2023-02-26T17:06:43.500Z,99525.09
2023-02-26T17:09:42.923Z,99533.75
2023-02-26T17:12:15.496Z,99538.03
2023-02-26T17:14:45.638Z,99543.25
2023-02-26T17:17:13.613Z,99543.25
2023-02-26T17:19:40.989Z,99548.47
2023-02-26T17:22:13.275Z,99553.63
2023-02-26T17:24:41.547Z,99545.00
2023-02-26T17:27:11.954Z,99551.09
2023-02-26T17:29:42.367Z,99558.84
2023-02-26T17:32:24.816Z,99553.72
2023-02-26T17:34:52.843Z,99556.25
2023-02-26T17:37:21.336Z,99554.53
2023-02-26T17:39:48.725Z,99555.41
2023-02-26T17:42:21.266Z,99551.91
2023-02-26T17:44:50.226Z,99557.97
2023-02-26T17:47:21.630Z,99557.06
2023-02-26T17:49:49.650Z,99559.59
2023-02-26T17:52:17.364Z,99556.19
2023-02-26T17:54:44.941Z,99563.06
2023-02-26T17:57:21.329Z,99563.97
2023-02-26T17:59:49.314Z,99563.16
2023-02-26T18:02:26.988Z,99558.81
2023-02-26T18:04:54.818Z,99557.97
2023-02-26T18:07:23.552Z,99557.94
2023-02-26T18:09:50.904Z,99570.84
2023-02-26T18:12:21.116Z,99560.50
2023-02-26T18:14:49.493Z,99567.44
2023-02-26T18:17:27.775Z,99569.19
2023-02-26T18:19:55.500Z,99569.13
2023-02-26T18:22:27.563Z,99569.97
2023-02-26T18:24:55.578Z,99570.88
2023-02-26T18:27:24.523Z,99574.31
2023-02-26T18:29:52.477Z,99570.84
2023-02-26T18:32:23.077Z,99574.31
2023-02-26T18:34:51.267Z,99574.31
2023-02-26T18:37:21.398Z,99572.56
2023-02-26T18:39:49.737Z,99581.25
2023-02-26T18:42:22.886Z,99583.81
2023-02-26T18:44:51.081Z,99585.56
2023-02-26T18:47:18.952Z,99593.31
2023-02-26T18:49:49.162Z,99582.13
2023-02-26T18:52:16.866Z,99581.31
2023-02-26T18:54:45.185Z,99592.53
2023-02-26T18:57:12.630Z,99584.72
2023-02-26T18:59:40.267Z,99590.78
2023-02-26T19:02:10.915Z,99597.63
2023-02-26T19:04:38.540Z,99601.09
2023-02-26T19:07:07.684Z,99603.72
2023-02-26T19:09:35.515Z,99604.59
2023-02-26T19:12:03.563Z,99607.22
2023-02-26T19:14:31.746Z,99606.34
2023-02-26T19:16:59.493Z,99604.59
2023-02-26T19:19:27.308Z,99603.72
2023-02-26T19:21:55.756Z,99608.94
2023-02-26T19:24:23.172Z,99608.94
2023-02-26T19:26:50.652Z,99615.00
2023-02-26T19:29:19.968Z,99614.13
2023-02-26T19:31:47.553Z,99612.41
2023-02-26T19:34:15.483Z,99616.69
2023-02-26T19:36:48.163Z,99620.22
2023-02-26T19:39:15.829Z,99623.62
2023-02-26T19:41:43.697Z,99629.63
2023-02-26T19:44:11.201Z,99633.97
2023-02-26T19:46:38.643Z,99639.03
2023-02-26T19:49:06.291Z,99639.09
2023-02-26T19:51:33.677Z,99648.66
2023-02-26T19:54:01.012Z,99648.66
2023-02-26T19:56:28.812Z,99648.66
2023-02-26T19:58:56.541Z,99659.69
2023-02-26T20:01:24.085Z,99658.19
2023-02-26T20:03:51.780Z,99665.06
2023-02-26T20:06:20.076Z,99663.34
2023-02-26T20:08:47.658Z,99672.84
2023-02-26T20:11:15.343Z,99672.09
2023-02-26T20:13:43.107Z,99676.34
2023-02-26T20:16:11.280Z,99671.19
2023-02-26T20:18:39.344Z,99674.66
2023-02-26T20:21:09.533Z,99678.09
2023-02-26T20:23:38.549Z,99686.72
2023-02-26T20:26:09.858Z,99688.47
2023-02-26T20:28:37.385Z,99699.69
2023-02-26T20:31:05.908Z,99697.09
2023-02-26T20:33:34.239Z,99697.16
2023-02-26T20:36:02.022Z,99700.56
2023-02-26T20:38:29.484Z,99704.00
2023-02-26T20:40:57.149Z,99705.81
2023-02-26T20:43:25.057Z,99710.13
2023-02-26T20:45:55.123Z,99718.75
2023-02-26T20:48:23.471Z,99715.31
2023-02-26T20:50:53.553Z,99720.44
2023-02-26T20:53:21.813Z,99728.19
2023-02-26T20:55:49.551Z,99727.37
2023-02-26T20:58:17.325Z,99732.47
2023-02-26T21:00:45.006Z,99744.53
2023-02-26T21:03:13.023Z,99736.75
2023-02-26T21:05:41.693Z,99743.72
2023-02-26T21:08:10.581Z,99746.34
2023-02-26T21:10:38.441Z,99748.78
2023-02-26T21:13:05.830Z,99746.12
2023-02-26T21:15:33.237Z,99748.00
2023-02-26T21:18:00.907Z,99749.78
2023-02-26T21:20:28.392Z,99753.94
2023-02-26T21:22:55.833Z,99762.41
2023-02-26T21:25:23.592Z,99752.25
2023-02-26T21:27:51.402Z,99761.69
2023-02-26T21:30:19.897Z,99761.47
2023-02-26T21:32:47.652Z,99752.75
2023-02-26T21:35:16.970Z,99747.78
2023-02-26T21:37:45.005Z,99758.94
2023-02-26T21:40:14.535Z,99764.06
2023-02-26T21:42:42.749Z,99776.09
2023-02-26T21:45:10.706Z,99772.56
2023-02-26T21:47:38.454Z,99774.38
2023-02-26T21:50:06.676Z,99775.91
2023-02-26T21:52:34.182Z,99784.50
2023-02-26T21:55:02.013Z,99776.19
2023-02-26T21:57:30.058Z,99779.56
2023-02-26T21:59:57.866Z,99779.47
2023-02-26T22:02:25.790Z,99778.03
2023-02-26T22:04:53.511Z,99774.84
2023-02-26T22:07:20.869Z,99783.53
2023-02-26T22:09:49.059Z,99778.56
2023-02-26T22:12:17.260Z,99780.28
2023-02-26T22:14:44.889Z,99778.63
2023-02-26T22:17:12.274Z,99783.12
2023-02-26T22:19:39.988Z,99782.25
2023-02-26T22:22:07.391Z,99788.97
2023-02-26T22:24:34.965Z,99790.78
2023-02-26T22:27:02.655Z,99798.28
2023-02-26T22:29:30.045Z,99793.94
2023-02-26T22:31:57.627Z,99790.03
2023-02-26T22:34:25.551Z,99799.22
2023-02-26T22:36:53.572Z,99801.59
2023-02-26T22:39:21.517Z,99799.00
2023-02-26T22:41:49.271Z,99798.19
2023-02-26T22:44:16.712Z,99798.06
2023-02-26T22:46:44.496Z,99802.56
2023-02-26T22:49:12.104Z,99803.13
2023-02-26T22:51:39.537Z,99802.41
2023-02-26T22:54:06.887Z,99811.63
2023-02-26T22:56:34.579Z,99812.41
2023-02-26T22:59:01.960Z,99810.69
2023-02-26T23:01:29.952Z,99812.03
2023-02-26T23:03:59.192Z,99824.09
2023-02-26T23:06:26.810Z,99817.16
2023-02-26T23:08:54.216Z,99822.25
2023-02-26T23:11:21.910Z,99815.25
2023-02-26T23:13:49.251Z,99836.22
2023-02-26T23:16:16.741Z,99837.75
2023-02-26T23:18:47.927Z,99835.94
2023-02-26T23:21:15.741Z,99844.25
2023-02-26T23:23:43.976Z,99848.53
2023-02-26T23:26:11.890Z,99845.38
2023-02-26T23:28:39.225Z,99856.00
2023-02-26T23:31:06.782Z,99855.50
2023-02-26T23:33:35.436Z,99860.62
2023-02-26T23:36:02.827Z,99868.34
2023-02-26T23:38:30.359Z,99871.16
2023-02-26T23:40:57.971Z,99865.22
2023-02-26T23:43:25.398Z,99865.91
2023-02-26T23:45:52.784Z,99856.06
2023-02-26T23:48:20.695Z,99860.34
2023-02-26T23:50:49.162Z,99859.62
2023-02-26T23:53:16.578Z,99863.31
2023-02-26T23:55:44.265Z,99872.81
2023-02-26T23:58:11.656Z,99873.84
